METAR AND TAF INFORMATION

METAR FOR SVCB
ADDS - METARS form results

(0137 UTC 05 December 2022)
Data provider http://aviationweather.gov/metar/data/
 
METAR text: SVCB 050103Z AUTO 11003KT NCD 26/21 Q1008
Conditions at: SVCB (CIUDAD BOLIVAR , VE) observed 0103 UTC 05 December 2022
Temperature: 26.0°C (79°F)
Dewpoint: 21.0°C (70°F) [RH = 74%]
Pressure (altimeter): 29.76 inches Hg (1008.0 mb)
Winds: from the ESE (110 degrees) at 3 MPH (3 knots; 1.5 m/s)
Visibility: missing
Ceiling: at least 12,000 feet AGL
Clouds: sky clear below 12,000 feet AGL
Weather: no significant weather observed at this time

 

AIRPORT MAP

 

RUNWAY INFORMATION

Runway 07 Runway length 5527 ft Runway width 148 ft
Runway elevation 0 ft Runway displaced threshold 265 ft Runway heading 56
Runway 25 Runway length 5527 ft Runway width 148 ft
Runway elevation 0 ft Runway displaced threshold 353 ft Runway heading 236
Runway 12 Runway length 4605 ft Runway width 135 ft
Runway elevation 0 ft Runway displaced threshold 590 ft Runway heading 116
Runway 30 Runway length 4605 ft Runway width 135 ft
Runway elevation 0 ft Runway displaced threshold 0 ft Runway heading 296

 

AIRPORT FREQUENCIES

Type ATIS Name ATIS Frequency 115.1 MHZ
Type RDO Name BOLIVAR RD Frequency 130.6 MHZ
Type TWR Name TWR Frequency 121.9 MHZ

 

AIRPORT NEAR NAVIGATION AIDS

Type VOR-DME Name Ciudad Bolivar Frequency 115100 KHZ
Type NDB Name Ciudad Bolivar Frequency 278 KHZ